createdAt,value
2016-09-29T00:00:11.116Z,17.23
2016-09-29T00:01:11.260Z,17.31
2016-09-29T00:02:10.851Z,17.2
2016-09-29T00:03:10.895Z,17.23
2016-09-29T00:04:11.219Z,17.19
2016-09-29T00:05:11.242Z,17.14
2016-09-29T00:06:11.261Z,17.19
2016-09-29T00:07:10.974Z,17.22
2016-09-29T00:08:11.315Z,17.2
2016-09-29T00:09:11.314Z,17.19
2016-09-29T00:10:11.132Z,17.16
2016-09-29T00:11:11.393Z,17.19
2016-09-29T00:12:11.124Z,17.22
2016-09-29T00:13:11.534Z,17.16
2016-09-29T00:14:11.532Z,17.2
2016-09-29T00:15:11.236Z,17.2
2016-09-29T00:16:11.184Z,17.22
2016-09-29T00:17:11.294Z,17.19
2016-09-29T00:18:10.956Z,17.22
2016-09-29T00:19:11.232Z,17.19
2016-09-29T00:20:11.363Z,17.17
2016-09-29T00:21:11.603Z,17.22
2016-09-29T00:22:11.295Z,17.19
2016-09-29T00:23:11.680Z,17.22
2016-09-29T00:24:11.364Z,17.19
2016-09-29T00:25:11.373Z,17.16
2016-09-29T00:26:11.512Z,17.19
2016-09-29T00:27:11.416Z,17.23
2016-09-29T00:28:11.849Z,17.14
2016-09-29T00:29:11.459Z,17.24
2016-09-29T00:30:11.784Z,17.24
2016-09-29T00:31:11.806Z,17.2
2016-09-29T00:32:11.828Z,17.19
2016-09-29T00:33:11.868Z,17.24
2016-09-29T00:34:11.575Z,17.27
2016-09-29T00:35:11.588Z,17.28
2016-09-29T00:36:11.610Z,17.31
2016-09-29T00:37:12.074Z,17.24
2016-09-29T00:38:11.655Z,17.3
2016-09-29T00:39:12.017Z,17.35
2016-09-29T00:40:12.022Z,17.23
2016-09-29T00:41:12.028Z,17.31
2016-09-29T00:42:12.064Z,17.24
2016-09-29T00:43:12.084Z,17.3
2016-09-29T00:44:12.109Z,17.23
2016-09-29T00:45:12.130Z,17.24
2016-09-29T00:46:12.163Z,17.23
2016-09-29T00:47:12.182Z,17.31
2016-09-29T00:48:11.882Z,17.24
2016-09-29T00:49:11.924Z,17.27
2016-09-29T00:50:11.933Z,17.27
2016-09-29T00:51:12.281Z,17.28
2016-09-29T00:52:11.970Z,17.19
2016-09-29T00:53:11.997Z,17.3
2016-09-29T00:54:12.330Z,17.23
2016-09-29T00:55:12.043Z,17.3
2016-09-29T00:56:12.385Z,17.24
2016-09-29T00:57:12.082Z,17.27
2016-09-29T00:58:12.415Z,17.31
2016-09-29T00:59:12.452Z,17.28
2016-09-29T01:00:12.483Z,17.24
2016-09-29T01:01:12.184Z,17.23
2016-09-29T01:02:12.517Z,17.2
2016-09-29T01:03:12.598Z,17.27
2016-09-29T01:04:12.569Z,17.28
2016-09-29T01:05:11.953Z,17.34
2016-09-29T01:06:12.617Z,17.3
2016-09-29T01:07:12.640Z,17.3
2016-09-29T01:08:12.653Z,17.24
2016-09-29T01:09:12.702Z,17.16
2016-09-29T01:10:12.389Z,17.23
2016-09-29T01:11:12.761Z,17.2
2016-09-29T01:12:12.751Z,17.24
2016-09-29T01:13:12.811Z,17.31
2016-09-29T01:14:12.853Z,17.27
2016-09-29T01:15:12.518Z,17.35
2016-09-29T01:16:12.836Z,17.3
2016-09-29T01:17:12.856Z,17.31
2016-09-29T01:18:12.874Z,17.27
2016-09-29T01:19:12.599Z,17.32
2016-09-29T01:20:12.921Z,17.34
2016-09-29T01:21:12.328Z,17.38
2016-09-29T01:22:12.973Z,17.28
2016-09-29T01:23:13.123Z,17.34
2016-09-29T01:24:12.713Z,17.32
2016-09-29T01:25:12.719Z,17.34
2016-09-29T01:26:13.065Z,17.32
2016-09-29T01:27:13.071Z,17.34
2016-09-29T01:28:12.808Z,17.28
2016-09-29T01:29:13.149Z,17.3
2016-09-29T01:30:13.157Z,17.31
2016-09-29T01:31:13.163Z,17.32
2016-09-29T01:32:12.627Z,17.32
2016-09-29T01:33:13.239Z,17.34
2016-09-29T01:34:13.236Z,17.32
2016-09-29T01:35:13.031Z,17.35
2016-09-29T01:36:13.411Z,17.35
2016-09-29T01:37:13.002Z,17.23
2016-09-29T01:38:13.433Z,17.34
2016-09-29T01:39:13.042Z,17.31
2016-09-29T01:40:13.372Z,17.35
2016-09-29T01:41:13.392Z,17.39
2016-09-29T01:42:13.229Z,17.46
2016-09-29T01:43:13.144Z,17.52
2016-09-29T01:44:13.467Z,17.39
2016-09-29T01:45:13.481Z,17.41
2016-09-29T01:46:13.611Z,17.47
2016-09-29T01:47:13.003Z,17.39
2016-09-29T01:48:13.261Z,17.35
2016-09-29T01:49:13.684Z,17.38
2016-09-29T01:50:13.672Z,17.35
2016-09-29T01:51:13.640Z,17.32
2016-09-29T01:52:13.643Z,17.28
2016-09-29T01:53:13.363Z,17.39
2016-09-29T01:54:13.681Z,17.34
2016-09-29T01:55:13.711Z,17.24
2016-09-29T01:56:13.741Z,17.3
2016-09-29T01:57:13.452Z,17.39
2016-09-29T01:58:13.518Z,17.34
2016-09-29T01:59:13.807Z,17.3
2016-09-29T02:00:13.630Z,17.27
2016-09-29T02:01:13.841Z,17.32
2016-09-29T02:02:13.589Z,17.3
2016-09-29T02:03:13.271Z,17.3
2016-09-29T02:04:13.920Z,17.28
2016-09-29T02:05:13.953Z,17.3
2016-09-29T02:06:13.962Z,17.34
2016-09-29T02:07:13.990Z,17.3
2016-09-29T02:08:13.696Z,17.24
2016-09-29T02:09:14.043Z,17.31
2016-09-29T02:10:14.054Z,17.31
2016-09-29T02:11:13.767Z,17.27
2016-09-29T02:12:14.103Z,17.31
2016-09-29T02:13:14.216Z,17.27
2016-09-29T02:14:13.531Z,17.3
2016-09-29T02:15:13.550Z,17.3
2016-09-29T02:16:13.886Z,17.35
2016-09-29T02:17:14.213Z,17.24
2016-09-29T02:18:14.237Z,17.32
2016-09-29T02:19:13.944Z,17.23
2016-09-29T02:20:13.970Z,17.42
2016-09-29T02:21:14.297Z,17.35
2016-09-29T02:22:13.699Z,17.41
2016-09-29T02:23:14.092Z,17.44
2016-09-29T02:24:14.060Z,17.39
2016-09-29T02:25:14.412Z,17.42
2016-09-29T02:26:14.410Z,17.41
2016-09-29T02:27:14.442Z,17.39
2016-09-29T02:28:14.211Z,17.41
2016-09-29T02:29:14.469Z,17.37
2016-09-29T02:30:14.201Z,17.39
2016-09-29T02:31:14.516Z,17.41
2016-09-29T02:32:14.548Z,17.41
2016-09-29T02:33:14.271Z,17.41
2016-09-29T02:34:14.292Z,17.5
2016-09-29T02:35:14.617Z,17.49
2016-09-29T02:36:14.351Z,17.47
2016-09-29T02:37:14.358Z,17.52
2016-09-29T02:38:14.691Z,17.49
2016-09-29T02:39:14.761Z,17.54
2016-09-29T02:40:14.420Z,17.5
2016-09-29T02:41:14.448Z,17.53
2016-09-29T02:42:14.475Z,17.35
2016-09-29T02:43:14.230Z,17.37
2016-09-29T02:44:14.521Z,17.39
2016-09-29T02:45:14.949Z,17.5
2016-09-29T02:46:14.885Z,17.5
2016-09-29T02:47:14.269Z,17.49
2016-09-29T02:48:14.960Z,17.46
2016-09-29T02:49:14.632Z,17.39
2016-09-29T02:50:14.963Z,17.38
2016-09-29T02:51:14.668Z,17.5
2016-09-29T02:52:15.012Z,17.47
2016-09-29T02:53:15.030Z,17.44
2016-09-29T02:54:14.733Z,17.35
2016-09-29T02:55:14.780Z,17.37
2016-09-29T02:56:15.129Z,17.39
2016-09-29T02:57:15.128Z,17.39
2016-09-29T02:58:14.869Z,17.34
2016-09-29T02:59:14.853Z,17.38
2016-09-29T03:00:14.900Z,17.42
2016-09-29T03:01:15.221Z,17.24
2016-09-29T03:02:15.152Z,17.34
2016-09-29T03:03:15.535Z,17.34
2016-09-29T03:04:15.300Z,17.34
2016-09-29T03:05:15.003Z,17.41
2016-09-29T03:06:15.010Z,17.34
2016-09-29T03:07:15.480Z,17.34
2016-09-29T03:08:15.061Z,17.39
2016-09-29T03:09:15.446Z,17.46
2016-09-29T03:10:40.753Z,17.41
2016-09-29T03:11:15.492Z,17.42
2016-09-29T03:12:15.503Z,17.41
2016-09-29T03:13:15.497Z,17.37
2016-09-29T03:14:15.523Z,17.31
2016-09-29T03:15:15.028Z,17.31
2016-09-29T03:16:15.547Z,17.3
2016-09-29T03:17:15.410Z,17.37
2016-09-29T03:18:15.601Z,17.27
2016-09-29T03:19:15.128Z,17.27
2016-09-29T03:20:15.897Z,17.27
2016-09-29T03:21:15.850Z,17.27
2016-09-29T03:22:15.495Z,17.16
2016-09-29T03:23:15.867Z,17.16
2016-09-29T03:24:15.737Z,17.23
2016-09-29T03:25:15.990Z,17.17
2016-09-29T03:26:15.980Z,17.23
2016-09-29T03:27:15.899Z,17.19
2016-09-29T03:28:15.930Z,17.2
2016-09-29T03:29:15.957Z,17.23
2016-09-29T03:30:15.924Z,17.19
2016-09-29T03:31:15.955Z,17.19
2016-09-29T03:32:16.069Z,17.22
2016-09-29T03:33:16.001Z,17.31
2016-09-29T03:34:15.973Z,17.28
2016-09-29T03:35:15.998Z,17.27
2016-09-29T03:36:16.012Z,17.3
2016-09-29T03:37:16.041Z,17.31
2016-09-29T03:38:16.261Z,17.24
2016-09-29T03:39:16.079Z,17.23
2016-09-29T03:40:16.051Z,17.24
2016-09-29T03:41:16.179Z,17.28
2016-09-29T03:42:16.158Z,17.28
2016-09-29T03:43:15.870Z,17.24
2016-09-29T03:44:16.001Z,17.31
2016-09-29T03:45:16.271Z,17.3
2016-09-29T03:46:15.913Z,17.28
2016-09-29T03:47:16.004Z,17.24
2016-09-29T03:48:16.275Z,17.23
2016-09-29T03:49:16.091Z,17.31
2016-09-29T03:50:16.324Z,17.31
2016-09-29T03:51:15.732Z,17.32
2016-09-29T03:52:16.376Z,17.35
2016-09-29T03:53:16.090Z,17.42
2016-09-29T03:54:15.811Z,17.37
2016-09-29T03:55:16.450Z,17.32
2016-09-29T03:56:16.138Z,17.38
2016-09-29T03:57:16.472Z,17.37
2016-09-29T03:58:16.196Z,17.39
2016-09-29T03:59:48.523Z,17.47
2016-09-29T04:00:16.568Z,17.38
2016-09-29T04:01:16.271Z,17.41
2016-09-29T04:02:16.611Z,17.5
2016-09-29T04:03:16.680Z,17.52
2016-09-29T04:04:16.648Z,17.63
2016-09-29T04:05:16.656Z,17.54
2016-09-29T04:06:16.381Z,17.73
2016-09-29T04:07:16.719Z,17.76
2016-09-29T04:08:16.485Z,17.84
2016-09-29T04:09:16.851Z,17.91
2016-09-29T04:10:16.782Z,17.94
2016-09-29T04:11:16.807Z,17.97
2016-09-29T04:12:16.832Z,17.94
2016-09-29T04:13:16.846Z,18.03
2016-09-29T04:14:16.885Z,18.08
2016-09-29T04:15:16.679Z,18.05
2016-09-29T04:16:16.612Z,18.15
2016-09-29T04:17:17.072Z,18.09
2016-09-29T04:18:16.701Z,18.09
2016-09-29T04:19:16.682Z,17.98
2016-09-29T04:20:17.071Z,18.16
2016-09-29T04:21:17.046Z,18.15
2016-09-29T04:22:17.053Z,18.19
2016-09-29T04:23:16.921Z,18.09
2016-09-29T04:24:17.102Z,18.13
2016-09-29T04:25:17.125Z,18.12
2016-09-29T04:26:17.150Z,18.16
2016-09-29T04:27:17.183Z,18.3
2016-09-29T04:28:17.253Z,18.21
2016-09-29T04:29:17.268Z,18.24
2016-09-29T04:30:16.944Z,18.33
2016-09-29T04:31:17.261Z,18.24
2016-09-29T04:32:16.978Z,18.24
2016-09-29T04:33:17.388Z,18.27
2016-09-29T04:34:17.362Z,18.3
2016-09-29T04:35:17.041Z,18.3
2016-09-29T04:36:17.391Z,18.33
2016-09-29T04:37:17.408Z,18.41
2016-09-29T04:38:17.430Z,18.41
2016-09-29T04:39:17.448Z,18.39
2016-09-29T04:40:17.161Z,18.39
2016-09-29T04:41:16.870Z,18.43
2016-09-29T04:42:17.602Z,18.39
2016-09-29T04:43:17.648Z,18.39
2016-09-29T04:44:17.605Z,18.43
2016-09-29T04:45:17.642Z,18.37
2016-09-29T04:46:17.619Z,18.42
2016-09-29T04:47:17.633Z,18.37
2016-09-29T04:48:17.658Z,18.41
2016-09-29T04:49:17.671Z,18.37
2016-09-29T04:50:17.404Z,18.31
2016-09-29T04:51:17.730Z,18.39
2016-09-29T04:52:17.839Z,18.41
2016-09-29T04:53:17.786Z,18.42
2016-09-29T04:54:17.512Z,18.37
2016-09-29T04:55:17.904Z,18.41
2016-09-29T04:56:17.891Z,18.42
2016-09-29T04:57:17.614Z,18.51
2016-09-29T04:58:17.912Z,18.52
2016-09-29T04:59:17.916Z,18.48
2016-09-29T05:00:17.962Z,18.58
2016-09-29T05:01:17.654Z,18.51
2016-09-29T05:02:17.981Z,18.51
2016-09-29T05:03:18.000Z,18.48
2016-09-29T05:04:17.718Z,18.55
2016-09-29T05:05:18.054Z,18.52
2016-09-29T05:06:17.882Z,18.46
2016-09-29T05:07:17.788Z,18.34
2016-09-29T05:08:18.186Z,18.39
2016-09-29T05:09:17.843Z,18.37
2016-09-29T05:10:17.861Z,18.27
2016-09-29T05:11:18.206Z,18.28
2016-09-29T05:12:17.912Z,18.26
2016-09-29T05:13:18.250Z,18.19
2016-09-29T05:14:18.271Z,18.28
2016-09-29T05:15:18.323Z,18.24
2016-09-29T05:16:18.319Z,18.23
2016-09-29T05:17:18.061Z,18.24
2016-09-29T05:18:18.370Z,18.24
2016-09-29T05:19:18.376Z,18.24
2016-09-29T05:20:18.611Z,18.3
2016-09-29T05:21:18.440Z,18.23
2016-09-29T05:22:18.126Z,18.24
2016-09-29T05:23:18.477Z,18.11
2016-09-29T05:24:18.498Z,18.23
2016-09-29T05:25:18.539Z,18.11
2016-09-29T05:26:18.237Z,18.15
2016-09-29T05:27:18.569Z,18.12
2016-09-29T05:28:18.301Z,18.19
2016-09-29T05:29:18.829Z,18.16
2016-09-29T05:30:18.328Z,18.08
2016-09-29T05:31:18.681Z,18.08
2016-09-29T05:32:18.704Z,18.09
2016-09-29T05:33:18.699Z,18
2016-09-29T05:34:18.724Z,18
2016-09-29T05:35:18.447Z,17.97
2016-09-29T05:36:18.469Z,17.98
2016-09-29T05:37:18.807Z,18
2016-09-29T05:38:18.820Z,17.98
2016-09-29T05:39:18.536Z,17.95
2016-09-29T05:40:18.578Z,17.97
2016-09-29T05:41:18.905Z,17.97
2016-09-29T05:42:18.296Z,17.93
2016-09-29T05:43:18.877Z,17.95
2016-09-29T05:44:50.974Z,17.97
2016-09-29T05:45:19.332Z,18
2016-09-29T05:46:18.948Z,17.95
2016-09-29T05:47:19.292Z,17.94
2016-09-29T05:48:19.458Z,18.05
2016-09-29T05:49:19.204Z,18.02
2016-09-29T05:50:18.596Z,18
2016-09-29T05:51:19.275Z,18.18
2016-09-29T05:52:19.251Z,18.18
2016-09-29T05:53:18.979Z,18.09
2016-09-29T05:54:18.938Z,18.06
2016-09-29T05:55:18.916Z,18.16
2016-09-29T05:56:19.248Z,18.08
2016-09-29T05:57:19.047Z,18.11
2016-09-29T05:58:18.985Z,18.06
2016-09-29T05:59:18.703Z,18.18
2016-09-29T06:00:19.343Z,18.18
2016-09-29T06:01:19.062Z,18.16
2016-09-29T06:02:19.142Z,18.13
2016-09-29T06:03:19.445Z,18.15
2016-09-29T06:04:19.437Z,18.11
2016-09-29T06:05:18.833Z,18.11
2016-09-29T06:06:19.992Z,18.09
2016-09-29T06:07:19.187Z,18.15
2016-09-29T06:08:19.567Z,18.12
2016-09-29T06:09:19.228Z,18.18
2016-09-29T06:10:19.578Z,18.18
2016-09-29T06:11:19.565Z,18.23
2016-09-29T06:12:19.610Z,18.28
2016-09-29T06:13:19.776Z,18.18
2016-09-29T06:14:19.751Z,18.24
2016-09-29T06:15:19.678Z,18.28
2016-09-29T06:16:19.437Z,18.3
2016-09-29T06:17:19.536Z,18.3
2016-09-29T06:18:19.501Z,18.33
2016-09-29T06:19:19.803Z,18.27
2016-09-29T06:20:19.824Z,18.3
2016-09-29T06:21:19.607Z,18.31
2016-09-29T06:22:19.840Z,18.42
2016-09-29T06:23:19.867Z,18.34
2016-09-29T06:24:19.281Z,18.37
2016-09-29T06:25:19.608Z,18.39
2016-09-29T06:26:19.647Z,18.31
2016-09-29T06:27:19.665Z,18.41
2016-09-29T06:28:19.726Z,18.45
2016-09-29T06:29:19.694Z,18.46
2016-09-29T06:30:20.054Z,18.52
2016-09-29T06:31:19.747Z,18.57
2016-09-29T06:32:19.756Z,18.63
2016-09-29T06:33:19.778Z,18.58
2016-09-29T06:34:19.817Z,18.66
2016-09-29T06:35:20.147Z,18.78
2016-09-29T06:36:20.166Z,18.73
2016-09-29T06:37:20.198Z,18.79
2016-09-29T06:38:20.368Z,18.92
2016-09-29T06:39:19.923Z,18.78
2016-09-29T06:40:19.689Z,18.86
2016-09-29T06:41:19.978Z,18.92
2016-09-29T06:42:19.997Z,18.97
2016-09-29T06:43:20.031Z,18.96
2016-09-29T06:44:20.054Z,19.05
2016-09-29T06:45:20.386Z,18.97
2016-09-29T06:46:20.416Z,18.92
2016-09-29T06:47:20.119Z,18.92
2016-09-29T06:48:20.468Z,18.88
2016-09-29T06:49:20.170Z,18.96
2016-09-29T06:50:20.208Z,18.92
2016-09-29T06:51:20.233Z,19
2016-09-29T06:52:20.555Z,18.91
2016-09-29T06:53:20.780Z,18.85
2016-09-29T06:54:20.595Z,18.97
2016-09-29T06:55:20.630Z,18.85
2016-09-29T06:56:20.337Z,18.88
2016-09-29T06:57:20.665Z,18.94
2016-09-29T06:58:20.397Z,18.88
2016-09-29T06:59:20.419Z,18.83
2016-09-29T07:00:20.117Z,18.96
2016-09-29T07:01:20.443Z,18.94
2016-09-29T07:02:20.906Z,18.94
2016-09-29T07:03:20.497Z,18.91
2016-09-29T07:04:20.855Z,18.94
2016-09-29T07:05:20.869Z,18.91
2016-09-29T07:06:20.598Z,18.88
2016-09-29T07:07:20.616Z,18.94
2016-09-29T07:08:20.315Z,19.04
2016-09-29T07:09:20.659Z,18.85
2016-09-29T07:10:21.068Z,18.91
2016-09-29T07:11:20.994Z,19
2016-09-29T07:12:21.040Z,19.09
2016-09-29T07:13:20.740Z,19.04
2016-09-29T07:14:21.067Z,18.98
2016-09-29T07:15:20.806Z,19.07
2016-09-29T07:16:21.128Z,19.12
2016-09-29T07:17:21.159Z,19.11
2016-09-29T07:18:21.183Z,19.16
2016-09-29T07:19:20.908Z,19.24
2016-09-29T07:20:20.925Z,19.17
2016-09-29T07:21:21.239Z,19.24
2016-09-29T07:22:21.280Z,19.22
2016-09-29T07:23:21.038Z,19.37
2016-09-29T07:24:21.315Z,19.35
2016-09-29T07:25:20.771Z,19.47
2016-09-29T07:26:21.051Z,19.45
2016-09-29T07:27:21.092Z,19.55
2016-09-29T07:28:21.412Z,19.57
2016-09-29T07:29:21.440Z,19.57
2016-09-29T07:30:21.257Z,19.62
2016-09-29T07:31:21.488Z,19.59
2016-09-29T07:32:21.630Z,19.62
2016-09-29T07:33:21.287Z,19.63
2016-09-29T07:34:21.568Z,19.64
2016-09-29T07:35:21.637Z,19.66
2016-09-29T07:36:21.622Z,19.67
2016-09-29T07:37:21.647Z,19.72
2016-09-29T07:38:21.659Z,19.71
2016-09-29T07:39:21.687Z,19.7
2016-09-29T07:40:21.687Z,19.71
2016-09-29T07:41:21.531Z,19.63
2016-09-29T07:42:21.761Z,19.71
2016-09-29T07:43:21.898Z,19.85
2016-09-29T07:44:21.921Z,19.77
2016-09-29T07:45:21.519Z,19.81
2016-09-29T07:46:21.863Z,19.79
2016-09-29T07:47:21.554Z,19.82
2016-09-29T07:48:21.956Z,19.89
2016-09-29T07:49:21.957Z,19.89
2016-09-29T07:50:21.945Z,19.87
2016-09-29T07:51:21.669Z,19.87
2016-09-29T07:52:21.995Z,19.96
2016-09-29T07:53:21.755Z,19.96
2016-09-29T07:54:21.743Z,20.08
2016-09-29T07:55:22.080Z,20.08
2016-09-29T07:56:22.086Z,20.11
2016-09-29T07:57:21.511Z,20.19
2016-09-29T07:58:22.156Z,20.24
2016-09-29T07:59:21.863Z,20.32
2016-09-29T08:00:21.878Z,20.32
2016-09-29T08:01:21.930Z,20.44
2016-09-29T08:02:22.250Z,20.53
2016-09-29T08:03:22.331Z,20.59
2016-09-29T08:04:22.299Z,20.78
2016-09-29T08:05:22.317Z,20.75
2016-09-29T08:06:22.413Z,20.78
2016-09-29T08:07:22.072Z,20.88
2016-09-29T08:08:22.183Z,20.86
2016-09-29T08:09:22.429Z,21.01
2016-09-29T08:10:22.148Z,21
2016-09-29T08:11:22.160Z,21.1
2016-09-29T08:12:22.201Z,21.14
2016-09-29T08:13:22.528Z,21.11
2016-09-29T08:14:22.549Z,21.22
2016-09-29T08:15:22.854Z,21.23
2016-09-29T08:16:22.305Z,21.19
2016-09-29T08:17:22.637Z,21.26
2016-09-29T08:18:22.646Z,21.26
2016-09-29T08:19:22.372Z,21.32
2016-09-29T08:20:22.692Z,21.23
2016-09-29T08:21:22.731Z,21.32
2016-09-29T08:22:22.760Z,21.32
2016-09-29T08:23:22.764Z,21.28
2016-09-29T08:24:22.501Z,21.33
2016-09-29T08:25:22.833Z,21.22
2016-09-29T08:26:22.864Z,21.26
2016-09-29T08:27:22.909Z,21.3
2016-09-29T08:28:22.281Z,21.35
2016-09-29T08:29:22.614Z,21.32
2016-09-29T08:30:22.977Z,21.41
2016-09-29T08:31:22.971Z,21.44
2016-09-29T08:32:23.083Z,21.53
2016-09-29T08:33:22.935Z,21.75
2016-09-29T08:34:22.768Z,21.84
2016-09-29T08:35:22.784Z,21.77
2016-09-29T08:36:23.111Z,21.85
2016-09-29T08:37:22.503Z,21.96
2016-09-29T08:38:22.871Z,22.06
2016-09-29T08:39:23.195Z,21.97
2016-09-29T08:40:22.915Z,21.97
2016-09-29T08:41:22.948Z,21.94
2016-09-29T08:42:23.324Z,21.75
2016-09-29T08:43:23.003Z,21.65
2016-09-29T08:44:23.061Z,21.58
2016-09-29T08:45:23.363Z,21.53
2016-09-29T08:46:23.383Z,21.59
2016-09-29T08:47:23.092Z,21.8
2016-09-29T08:48:23.107Z,21.85
2016-09-29T08:49:23.566Z,22.03
2016-09-29T08:50:23.548Z,22.19
2016-09-29T08:51:23.212Z,22.33
2016-09-29T08:52:23.582Z,22.56
2016-09-29T08:53:23.676Z,22.65
2016-09-29T08:54:23.584Z,22.8
2016-09-29T08:55:23.334Z,22.86
2016-09-29T08:56:23.337Z,22.92
2016-09-29T08:57:23.671Z,22.99
2016-09-29T08:58:23.485Z,23.04
2016-09-29T08:59:23.712Z,23.13
2016-09-29T09:00:23.859Z,23.13
2016-09-29T09:01:23.771Z,23.18
2016-09-29T09:02:23.527Z,23.29
2016-09-29T09:03:23.675Z,23.34
2016-09-29T09:04:23.874Z,23.25
2016-09-29T09:05:23.571Z,23.47
2016-09-29T09:06:23.933Z,23.66
2016-09-29T09:07:23.937Z,23.64
2016-09-29T09:08:23.653Z,23.64
2016-09-29T09:09:23.992Z,23.58
2016-09-29T09:10:24.013Z,23.67
2016-09-29T09:11:23.456Z,23.62
2016-09-29T09:12:23.752Z,23.48
2016-09-29T09:13:24.166Z,23.42
2016-09-29T09:14:23.834Z,23.44
2016-09-29T09:15:24.155Z,23.51
2016-09-29T09:16:24.173Z,23.51
2016-09-29T09:17:24.195Z,23.42
2016-09-29T09:18:24.240Z,23.33
2016-09-29T09:19:23.946Z,23.34
2016-09-29T09:20:23.671Z,23.37
2016-09-29T09:21:24.024Z,23.26
2016-09-29T09:22:24.331Z,23.2
2016-09-29T09:23:24.404Z,23.14
2016-09-29T09:24:24.082Z,23.14
2016-09-29T09:25:24.165Z,23.23
2016-09-29T09:26:24.430Z,23.26
2016-09-29T09:27:24.473Z,23.33
2016-09-29T09:28:24.493Z,23.42
2016-09-29T09:29:24.522Z,23.48
2016-09-29T09:30:24.245Z,23.39
2016-09-29T09:31:24.577Z,23.33
2016-09-29T09:32:24.301Z,23.39
2016-09-29T09:33:24.380Z,23.48
2016-09-29T09:34:24.344Z,23.42
2016-09-29T09:35:24.385Z,23.42
2016-09-29T09:36:24.764Z,23.32
2016-09-29T09:37:24.750Z,23.14
2016-09-29T09:38:24.762Z,23.13
2016-09-29T09:39:24.493Z,23.16
2016-09-29T09:40:24.198Z,23.14
2016-09-29T09:41:24.853Z,23.33
2016-09-29T09:42:24.898Z,23.29
2016-09-29T09:43:24.792Z,23.32
2016-09-29T09:44:24.947Z,23.16
2016-09-29T09:45:24.665Z,23.1
2016-09-29T09:46:24.683Z,22.99
2016-09-29T09:47:25.035Z,22.91
2016-09-29T09:48:25.049Z,22.83
2016-09-29T09:49:24.763Z,22.81
2016-09-29T09:50:24.782Z,22.92
2016-09-29T09:51:24.828Z,23.06
2016-09-29T09:52:25.145Z,23.21
2016-09-29T09:53:25.269Z,23.42
2016-09-29T09:54:25.236Z,23.42
2016-09-29T09:55:24.934Z,23.66
2016-09-29T09:56:25.325Z,23.84
2016-09-29T09:57:24.684Z,23.84
2016-09-29T09:58:25.334Z,23.95
2016-09-29T09:59:25.034Z,24.03
2016-09-29T10:00:25.064Z,24.16
2016-09-29T10:01:25.400Z,24.37
2016-09-29T10:02:25.426Z,24.63
2016-09-29T10:03:25.613Z,24.63
2016-09-29T10:04:25.166Z,24.58
2016-09-29T10:05:25.216Z,24.51
2016-09-29T10:06:25.576Z,24.46
2016-09-29T10:07:25.272Z,24.46
2016-09-29T10:08:25.279Z,24.44
2016-09-29T10:09:25.851Z,24.53
2016-09-29T10:10:25.856Z,24.56
2016-09-29T10:11:25.885Z,24.47
2016-09-29T10:12:25.392Z,24.43
2016-09-29T10:13:25.852Z,24.32
2016-09-29T10:14:25.552Z,24.25
2016-09-29T10:15:25.854Z,24.16
2016-09-29T10:16:25.568Z,23.96
2016-09-29T10:17:25.534Z,23.84
2016-09-29T10:18:26.187Z,23.63
2016-09-29T10:19:25.590Z,23.49
2016-09-29T10:20:25.962Z,23.33
2016-09-29T10:21:25.937Z,23.2
2016-09-29T10:22:26.005Z,23.06
2016-09-29T10:23:26.017Z,22.86
2016-09-29T10:24:26.042Z,22.8
2016-09-29T10:25:26.153Z,22.68
2016-09-29T10:26:26.081Z,22.61
2016-09-29T10:27:26.152Z,22.71
2016-09-29T10:28:26.161Z,22.76
2016-09-29T10:29:26.171Z,22.81
2016-09-29T10:30:25.942Z,22.77
2016-09-29T10:31:26.226Z,22.81
2016-09-29T10:32:26.255Z,22.76
2016-09-29T10:33:26.288Z,22.86
2016-09-29T10:34:26.062Z,22.78
2016-09-29T10:35:26.338Z,22.92
2016-09-29T10:36:26.422Z,22.83
2016-09-29T10:37:26.074Z,22.78
2016-09-29T10:38:26.464Z,22.7
2016-09-29T10:39:26.226Z,22.78
2016-09-29T10:40:26.464Z,22.62
2016-09-29T10:41:26.516Z,22.55
2016-09-29T10:42:26.744Z,22.44
2016-09-29T10:43:26.553Z,22.34
2016-09-29T10:44:26.584Z,22.31
2016-09-29T10:45:26.307Z,22.28
2016-09-29T10:46:26.644Z,22.36
2016-09-29T10:47:26.653Z,22.51
2016-09-29T10:48:26.374Z,22.71
2016-09-29T10:49:26.712Z,22.77
2016-09-29T10:50:26.425Z,22.89
2016-09-29T10:51:26.772Z,23.26
2016-09-29T10:52:26.484Z,23.63
2016-09-29T10:53:26.811Z,24.01
2016-09-29T10:54:26.847Z,24.22
2016-09-29T10:55:26.872Z,24.26
2016-09-29T10:56:26.919Z,24.29
2016-09-29T10:57:26.938Z,24.22
2016-09-29T10:58:26.951Z,24.24
2016-09-29T10:59:26.984Z,24.31
2016-09-29T11:00:27.019Z,24.37
2016-09-29T11:01:26.729Z,24.38
2016-09-29T11:02:27.081Z,24.34
2016-09-29T11:03:27.110Z,24.38
2016-09-29T11:04:27.120Z,24.43
2016-09-29T11:05:27.145Z,24.65
2016-09-29T11:06:26.945Z,24.74
2016-09-29T11:07:26.884Z,24.89
2016-09-29T11:08:26.917Z,24.89
2016-09-29T11:09:27.251Z,24.88
2016-09-29T11:10:27.324Z,24.78
2016-09-29T11:11:27.324Z,24.75
2016-09-29T11:12:27.344Z,24.59
2016-09-29T11:13:27.182Z,24.51
2016-09-29T11:14:27.181Z,24.59
2016-09-29T11:15:27.105Z,24.48
2016-09-29T11:16:27.452Z,24.43
2016-09-29T11:17:27.632Z,24.38
2016-09-29T11:18:27.262Z,24.37
2016-09-29T11:19:27.544Z,24.44
2016-09-29T11:20:27.613Z,24.55
2016-09-29T11:21:27.598Z,24.43
2016-09-29T11:22:27.309Z,24.41
2016-09-29T11:23:27.655Z,24.21
2016-09-29T11:24:27.690Z,24.06
2016-09-29T11:25:27.394Z,24.03
2016-09-29T11:26:27.750Z,24.03
2016-09-29T11:27:27.585Z,23.95
2016-09-29T11:28:27.473Z,23.91
2016-09-29T11:29:27.885Z,23.84
2016-09-29T11:30:27.891Z,23.81
2016-09-29T11:31:27.625Z,23.88
2016-09-29T11:32:27.923Z,24.03
2016-09-29T11:33:27.921Z,23.95
2016-09-29T11:34:27.989Z,23.84
2016-09-29T11:35:28.016Z,23.86
2016-09-29T11:36:27.703Z,23.89
2016-09-29T11:37:28.087Z,23.92
2016-09-29T11:38:28.087Z,23.73
2016-09-29T11:39:28.102Z,23.73
2016-09-29T11:40:27.850Z,23.77
2016-09-29T11:41:28.174Z,23.71
2016-09-29T11:42:28.180Z,23.7
2016-09-29T11:43:28.212Z,23.59
2016-09-29T11:44:27.921Z,23.64
2016-09-29T11:45:28.264Z,23.52
2016-09-29T11:46:27.982Z,23.47
2016-09-29T11:47:28.061Z,23.45
2016-09-29T11:48:28.045Z,23.54
2016-09-29T11:49:28.392Z,23.69
2016-09-29T11:50:28.402Z,23.85
2016-09-29T11:51:28.535Z,23.95
2016-09-29T11:52:28.152Z,23.96
2016-09-29T11:53:28.493Z,24.16
2016-09-29T11:54:28.511Z,24.25
2016-09-29T11:55:27.912Z,24.28
2016-09-29T11:56:28.575Z,24.36
2016-09-29T11:57:28.314Z,24.26
2016-09-29T11:58:28.790Z,24.36
2016-09-29T11:59:28.341Z,24.24
2016-09-29T12:00:28.376Z,24.21
2016-09-29T12:01:28.394Z,24.26
2016-09-29T12:02:28.942Z,24.26
2016-09-29T12:03:28.921Z,24.24
2016-09-29T12:04:28.473Z,24.48
2016-09-29T12:05:28.988Z,24.46
2016-09-29T12:06:28.643Z,24.51
2016-09-29T12:07:28.991Z,24.62
2016-09-29T12:08:28.738Z,24.59
2016-09-29T12:09:28.723Z,24.61
2016-09-29T12:10:29.005Z,24.56
2016-09-29T12:11:28.683Z,24.4
2016-09-29T12:12:28.699Z,24.26
2016-09-29T12:13:29.093Z,24.13
2016-09-29T12:14:28.779Z,24.01
2016-09-29T12:15:29.120Z,23.89
2016-09-29T12:16:28.843Z,24.01
2016-09-29T12:17:29.181Z,23.96
2016-09-29T12:18:28.731Z,23.94
2016-09-29T12:19:29.273Z,23.95
2016-09-29T12:20:29.142Z,23.88
2016-09-29T12:21:28.960Z,23.91
2016-09-29T12:22:28.999Z,23.95
2016-09-29T12:23:29.120Z,23.99
2016-09-29T12:24:29.391Z,23.86
2016-09-29T12:25:29.382Z,23.76
2016-09-29T12:26:29.159Z,23.88
2016-09-29T12:27:29.438Z,23.91
2016-09-29T12:28:29.153Z,23.82
2016-09-29T12:29:29.190Z,23.86
2016-09-29T12:30:29.641Z,23.82
2016-09-29T12:31:29.254Z,23.69
2016-09-29T12:32:29.614Z,23.62
2016-09-29T12:33:29.662Z,23.54
2016-09-29T12:34:29.654Z,23.34
2016-09-29T12:35:29.660Z,23.39
2016-09-29T12:36:29.723Z,23.4
2016-09-29T12:37:29.720Z,23.34
2016-09-29T12:38:29.789Z,23.37
2016-09-29T12:39:29.900Z,23.42
2016-09-29T12:40:29.816Z,23.26
2016-09-29T12:41:29.897Z,23.14
2016-09-29T12:42:29.604Z,23.07
2016-09-29T12:43:29.987Z,22.89
2016-09-29T12:44:29.919Z,22.83
2016-09-29T12:45:29.623Z,22.78
2016-09-29T12:46:29.673Z,22.77
2016-09-29T12:47:29.991Z,22.86
2016-09-29T12:48:30.041Z,22.84
2016-09-29T12:49:30.052Z,22.8
2016-09-29T12:50:29.983Z,22.84
2016-09-29T12:51:29.798Z,22.74
2016-09-29T12:52:30.134Z,22.77
2016-09-29T12:53:30.210Z,22.62
2016-09-29T12:54:30.179Z,22.58
2016-09-29T12:55:30.358Z,22.55